Time;durP1;ratioP1;P1;durP2;ratioP2;P2;SDS_P1;SDS_P2;PMS_P1;PMS_P2;Temp;Humidity;BMP_temperature;BMP_pressure;BME280_temperature;BME280_humidity;BME280_pressure;Samples;Min_cycle;Max_cycle;Signal;HPM_P1;HPM_P2
2022/05/27 00:02:19;;;;;;;18.05;4.95;;;13.10;88.10;;;;;;5030593;28;20030;-46
2022/05/27 00:04:45;;;;;;;19.20;5.40;;;13.10;88.00;;;;;;5047971;28;20047;-41
2022/05/27 00:07:10;;;;;;;24.17;5.30;;;13.10;88.10;;;;;;5050985;28;20075;-42
2022/05/27 00:09:36;;;;;;;14.40;4.05;;;13.00;87.80;;;;;;5048586;28;20114;-44
2022/05/27 00:12:02;;;;;;;18.63;5.10;;;13.10;87.80;;;;;;5035410;28;20040;-42
2022/05/27 00:14:28;;;;;;;18.20;4.15;;;13.10;87.70;;;;;;5030644;28;20030;-42
2022/05/27 00:16:54;;;;;;;16.25;4.28;;;13.00;87.70;;;;;;5039173;28;20029;-44
2022/05/27 00:19:19;;;;;;;19.95;6.90;;;13.00;87.70;;;;;;5033616;28;20443;-41
2022/05/27 00:21:47;;;;;;;14.65;4.93;;;13.00;87.70;;;;;;5047628;28;20041;-42
2022/05/27 00:24:13;;;;;;;14.38;4.60;;;12.90;87.80;;;;;;5028915;28;20088;-44
2022/05/27 00:26:39;;;;;;;13.55;3.92;;;12.90;87.90;;;;;;5036260;28;20045;-43
2022/05/27 00:29:04;;;;;;;17.63;4.63;;;12.90;87.80;;;;;;5038844;28;20112;-41
2022/05/27 00:31:30;;;;;;;15.38;4.13;;;12.90;87.90;;;;;;5035095;28;20449;-41
2022/05/27 00:33:56;;;;;;;14.43;3.83;;;12.90;87.90;;;;;;5044785;28;20087;-41
2022/05/27 00:36:21;;;;;;;16.83;4.15;;;12.90;87.80;;;;;;5030790;28;20355;-41
2022/05/27 00:38:49;;;;;;;20.70;5.32;;;12.90;87.80;;;;;;5030401;28;20029;-42
2022/05/27 00:41:17;;;;;;;11.75;3.65;;;12.90;88.00;;;;;;5030233;28;21097;-41
2022/05/27 00:43:45;;;;;;;15.52;4.05;;;12.90;87.90;;;;;;5043362;28;20509;-42
2022/05/27 00:46:18;;;;;;;21.25;4.72;;;12.80;87.70;;;;;;5027888;28;20044;-43
2022/05/27 00:48:46;;;;;;;12.50;4.13;;;12.70;87.70;;;;;;5028272;28;20435;-41
2022/05/27 00:51:21;;;;;;;13.93;4.07;;;12.60;87.50;;;;;;5029535;28;20033;-43
2022/05/27 00:54:00;;;;;;;15.07;3.60;;;12.50;87.30;;;;;;5029558;28;20108;-41
2022/05/27 00:56:34;;;;;;;16.45;3.38;;;12.40;87.00;;;;;;5027975;28;20088;-41
2022/05/27 00:59:05;;;;;;;13.02;3.45;;;12.40;86.70;;;;;;5029167;28;20516;-42
2022/05/27 01:01:31;;;;;;;15.48;3.75;;;12.40;86.70;;;;;;5029547;28;20096;-41
2022/05/27 01:03:57;;;;;;;15.23;4.25;;;12.40;86.20;;;;;;5029442;28;20029;-41
2022/05/27 01:06:24;;;;;;;11.20;3.47;;;12.30;86.20;;;;;;5028979;28;20069;-40
2022/05/27 01:08:50;;;;;;;17.27;3.40;;;12.20;85.60;;;;;;5012333;28;20088;-41
2022/05/27 01:11:35;;;;;;;16.63;3.00;;;12.20;85.00;;;;;;5012049;28;20047;-40
2022/05/27 01:14:28;;;;;;;16.13;4.45;;;12.20;85.10;;;;;;5009523;28;20034;-40
2022/05/27 01:17:20;;;;;;;14.57;3.70;;;12.30;85.10;;;;;;5014494;28;20049;-41
2022/05/27 01:22:57;;;;;;;12.35;2.70;;;12.20;84.40;;;;;;5034084;28;20121;-41
2022/05/27 01:25:37;;;;;;;12.88;3.97;;;12.20;84.40;;;;;;5023956;28;20025;-40
2022/05/27 01:28:18;;;;;;;14.98;3.40;;;12.20;84.30;;;;;;5028389;28;20103;-43
2022/05/27 01:30:56;;;;;;;11.35;3.42;;;12.10;84.40;;;;;;5026268;28;20013;-40
2022/05/27 01:33:28;;;;;;;8.52;2.30;;;12.10;84.30;;;;;;5031718;28;20110;-41
2022/05/27 01:36:21;;;;;;;11.80;3.10;;;12.00;84.40;;;;;;5028282;28;20377;-43
2022/05/27 01:39:09;;;;;;;12.90;3.55;;;12.00;84.40;;;;;;5027076;28;20374;-40
2022/05/27 01:41:49;;;;;;;14.70;3.40;;;12.00;84.20;;;;;;5026950;28;20370;-41
2022/05/27 01:44:43;;;;;;;12.15;2.60;;;12.00;83.90;;;;;;5026808;28;20033;-40
2022/05/27 01:47:15;;;;;;;10.15;4.15;;;12.00;83.70;;;;;;5022779;28;20064;-41
2022/05/27 01:50:06;;;;;;;9.80;2.72;;;11.90;83.80;;;;;;5026434;28;20029;-40
2022/05/27 01:52:40;;;;;;;8.02;2.60;;;11.90;83.60;;;;;;5020346;28;20049;-42
2022/05/27 01:55:41;;;;;;;13.77;2.30;;;11.90;83.50;;;;;;5028404;28;20025;-41
2022/05/27 01:58:13;;;;;;;7.35;2.03;;;11.90;83.30;;;;;;5027574;28;20092;-43
2022/05/27 02:00:43;;;;;;;8.52;2.40;;;11.90;81.00;;;;;;5027830;28;20029;-40
2022/05/27 02:03:21;;;;;;;13.10;3.00;;;11.90;80.30;;;;;;5028343;28;20071;-40
2022/05/27 02:05:56;;;;;;;11.25;2.30;;;11.90;80.10;;;;;;5030539;28;20128;-40
2022/05/27 02:08:30;;;;;;;13.98;2.97;;;11.80;79.20;;;;;;5048288;28;20094;-40
2022/05/27 02:11:13;;;;;;;10.35;2.60;;;11.90;79.80;;;;;;5045415;28;20025;-41
2022/05/27 02:14:20;;;;;;;10.90;2.28;;;11.80;79.30;;;;;;5045888;28;20084;-40
2022/05/27 02:16:54;;;;;;;15.13;3.03;;;11.80;80.10;;;;;;5010229;28;20090;-40
2022/05/27 02:19:47;;;;;;;7.20;2.13;;;11.80;80.70;;;;;;5048317;28;20438;-41
2022/05/27 02:22:17;;;;;;;11.07;2.40;;;11.80;81.10;;;;;;5043681;28;20140;-41
2022/05/27 02:24:48;;;;;;;10.80;2.55;;;11.80;81.30;;;;;;5042239;28;20083;-40
2022/05/27 02:27:20;;;;;;;13.07;2.00;;;11.80;81.50;;;;;;5045592;28;20337;-40
2022/05/27 02:29:50;;;;;;;15.40;2.45;;;11.80;81.60;;;;;;5040343;28;20025;-40
2022/05/27 02:32:26;;;;;;;15.98;3.10;;;11.70;80.50;;;;;;5038736;28;20026;-40
2022/05/27 02:35:10;;;;;;;13.48;3.35;;;11.70;79.70;;;;;;5029907;28;20017;-42
2022/05/27 02:37:43;;;;;;;6.97;1.77;;;11.70;78.80;;;;;;5028963;28;20029;-40
2022/05/27 02:40:16;;;;;;;14.70;2.70;;;11.70;78.10;;;;;;5032095;28;20056;-40
2022/05/27 02:42:42;;;;;;;8.02;2.30;;;11.70;78.10;;;;;;5048929;28;20469;-40
2022/05/27 02:45:25;;;;;;;8.65;1.80;;;11.70;77.70;;;;;;5036425;28;20030;-42
2022/05/27 02:48:15;;;;;;;13.43;2.83;;;11.60;78.00;;;;;;5029933;28;20026;-41
2022/05/27 02:51:10;;;;;;;7.75;2.33;;;11.60;78.30;;;;;;5028996;28;20036;-42
2022/05/27 02:54:01;;;;;;;11.85;3.22;;;11.50;78.60;;;;;;5028855;28;20374;-42
2022/05/27 02:56:43;;;;;;;9.30;2.17;;;11.50;79.00;;;;;;5031503;28;20029;-41
2022/05/27 02:59:11;;;;;;;11.82;2.63;;;11.50;79.50;;;;;;5031106;28;20022;-41
2022/05/27 03:01:37;;;;;;;11.38;2.35;;;11.40;80.00;;;;;;5039952;28;20039;-41
2022/05/27 03:04:04;;;;;;;11.75;2.45;;;11.40;80.40;;;;;;5048747;28;20094;-42
2022/05/27 03:07:15;;;;;;;13.10;2.30;;;11.40;80.60;;;;;;5028156;28;20108;-41
2022/05/27 03:09:54;;;;;;;8.13;2.15;;;11.30;80.90;;;;;;4995354;28;20044;-42
2022/05/27 03:12:37;;;;;;;8.32;2.63;;;11.30;81.50;;;;;;5026623;28;20041;-43
2022/05/27 03:15:31;;;;;;;11.90;2.92;;;11.20;81.70;;;;;;5025092;28;20048;-42
2022/05/27 03:18:10;;;;;;;11.32;3.00;;;11.20;82.20;;;;;;4998541;28;20045;-45
2022/05/27 03:20:35;;;;;;;7.80;2.75;;;11.10;82.30;;;;;;5005287;28;20137;-42
2022/05/27 03:23:04;;;;;;;11.57;2.47;;;11.10;82.60;;;;;;5007104;28;20113;-41
2022/05/27 03:25:48;;;;;;;16.55;4.05;;;11.10;82.90;;;;;;5009632;28;20026;-42
2022/05/27 03:28:31;;;;;;;11.77;3.30;;;11.10;83.20;;;;;;5010098;28;20049;-41
2022/05/27 03:31:39;;;;;;;13.35;2.58;;;11.00;83.60;;;;;;5021760;28;20453;-41
2022/05/27 03:34:18;;;;;;;9.30;3.63;;;11.00;83.70;;;;;;4932713;29;20484;-43
2022/05/27 03:36:50;;;;;;;10.18;2.47;;;10.90;83.70;;;;;;4949506;29;20028;-40
2022/05/27 03:39:22;;;;;;;13.32;3.83;;;10.90;84.00;;;;;;4994312;28;20029;-46
2022/05/27 03:41:53;;;;;;;7.50;2.60;;;10.90;83.90;;;;;;5050942;28;20024;-41
2022/05/27 03:44:26;;;;;;;9.10;2.00;;;10.90;83.70;;;;;;5049837;28;20122;-44
2022/05/27 03:46:54;;;;;;;9.13;2.83;;;10.80;83.40;;;;;;5049739;28;20466;-42
2022/05/27 03:49:19;;;;;;;11.80;2.47;;;10.70;83.00;;;;;;5043187;28;20497;-44
2022/05/27 03:52:04;;;;;;;9.68;2.42;;;10.70;82.60;;;;;;5030680;28;20145;-41
2022/05/27 03:54:30;;;;;;;7.30;2.28;;;10.70;82.30;;;;;;5016637;28;20048;-44
2022/05/27 03:56:56;;;;;;;11.20;2.17;;;10.70;81.30;;;;;;5030745;28;20104;-41
2022/05/27 03:59:24;;;;;;;13.45;2.92;;;10.90;80.60;;;;;;5045821;28;20033;-42
2022/05/27 04:01:54;;;;;;;8.82;1.95;;;10.90;79.80;;;;;;5050606;28;20104;-41
2022/05/27 04:04:22;;;;;;;9.00;1.83;;;11.00;78.80;;;;;;5041238;28;20021;-43
2022/05/27 04:06:47;;;;;;;10.10;2.33;;;11.20;78.30;;;;;;5031779;28;20053;-46
2022/05/27 04:09:17;;;;;;;13.13;2.55;;;11.30;78.00;;;;;;5036748;28;20075;-42
2022/05/27 04:11:43;;;;;;;10.02;2.50;;;11.40;78.10;;;;;;5031333;28;20057;-42
2022/05/27 04:14:10;;;;;;;8.43;2.33;;;11.40;77.80;;;;;;5034968;28;20061;-41
2022/05/27 04:16:36;;;;;;;11.93;2.72;;;11.50;77.70;;;;;;5031214;28;20400;-41
2022/05/27 04:19:02;;;;;;;11.23;2.50;;;11.50;77.70;;;;;;5029921;28;20095;-41
2022/05/27 04:21:28;;;;;;;11.85;2.42;;;11.50;77.60;;;;;;5021163;28;20036;-41
2022/05/27 04:23:54;;;;;;;8.85;2.17;;;11.50;78.20;;;;;;5031322;28;20029;-44
2022/05/27 04:26:20;;;;;;;8.40;2.67;;;11.50;78.50;;;;;;5011002;28;20036;-44
2022/05/27 04:28:46;;;;;;;15.90;3.00;;;11.40;78.80;;;;;;5036831;28;20044;-42
2022/05/27 04:31:11;;;;;;;8.90;2.08;;;11.40;79.30;;;;;;5048464;28;20042;-42
2022/05/27 04:33:37;;;;;;;9.18;2.13;;;11.40;79.20;;;;;;5047480;28;20056;-41
2022/05/27 04:36:04;;;;;;;10.55;3.08;;;11.40;79.30;;;;;;5048593;28;20029;-42
2022/05/27 04:38:30;;;;;;;9.35;2.95;;;11.40;79.20;;;;;;5047180;28;20028;-42
2022/05/27 04:40:56;;;;;;;9.48;2.50;;;11.50;79.10;;;;;;5046914;28;20044;-41
2022/05/27 04:43:22;;;;;;;13.25;2.70;;;11.70;79.30;;;;;;5048606;28;20037;-42
2022/05/27 04:45:47;;;;;;;9.43;3.13;;;11.80;78.80;;;;;;5050711;28;20021;-42
2022/05/27 04:48:13;;;;;;;12.43;2.45;;;11.90;78.00;;;;;;5035253;28;20033;-41
2022/05/27 04:50:39;;;;;;;14.23;2.95;;;11.90;78.30;;;;;;5030605;28;20328;-42
2022/05/27 04:53:05;;;;;;;11.70;3.17;;;11.90;78.10;;;;;;5034568;28;20037;-41
2022/05/27 04:55:33;;;;;;;11.05;1.90;;;12.00;78.50;;;;;;5035231;28;20046;-43
2022/05/27 04:57:59;;;;;;;9.18;2.65;;;12.10;78.10;;;;;;5042923;28;20033;-42
2022/05/27 05:00:31;;;;;;;8.80;2.20;;;12.20;78.00;;;;;;5046166;28;20041;-43
2022/05/27 05:02:57;;;;;;;10.30;3.50;;;12.20;78.00;;;;;;5013310;28;20034;-43
2022/05/27 05:05:26;;;;;;;7.57;2.35;;;12.40;77.50;;;;;;5029367;28;20040;-44
2022/05/27 05:07:58;;;;;;;12.07;3.00;;;12.40;77.40;;;;;;5013057;28;20033;-42
2022/05/27 05:10:24;;;;;;;12.98;3.35;;;12.50;77.20;;;;;;5030092;28;20033;-43
2022/05/27 05:12:51;;;;;;;11.95;2.85;;;12.50;77.00;;;;;;5030382;28;20028;-43
2022/05/27 05:15:19;;;;;;;11.45;2.60;;;12.50;76.10;;;;;;5037851;28;20032;-43
2022/05/27 05:17:45;;;;;;;12.40;2.83;;;12.50;75.80;;;;;;5039288;28;20466;-44
2022/05/27 05:20:13;;;;;;;11.88;3.22;;;12.40;76.10;;;;;;5039870;28;20038;-44
2022/05/27 05:22:39;;;;;;;21.98;3.13;;;12.40;76.00;;;;;;5032805;28;20039;-43
2022/05/27 05:25:06;;;;;;;12.88;3.30;;;12.40;75.80;;;;;;5017642;28;20371;-43
2022/05/27 05:27:34;;;;;;;11.02;2.20;;;12.50;75.10;;;;;;5010234;28;20036;-43
2022/05/27 05:30:00;;;;;;;12.30;2.92;;;12.60;74.90;;;;;;5019940;28;20104;-43
2022/05/27 05:32:26;;;;;;;7.57;2.00;;;12.80;74.70;;;;;;5028730;28;20043;-43
2022/05/27 05:34:53;;;;;;;16.55;3.38;;;12.90;73.80;;;;;;5027967;28;20112;-43
2022/05/27 05:37:19;;;;;;;8.27;2.45;;;13.00;73.50;;;;;;5012510;28;20442;-43
2022/05/27 05:39:44;;;;;;;11.05;3.72;;;13.10;72.50;;;;;;5030366;28;20039;-45
2022/05/27 05:42:13;;;;;;;8.18;2.35;;;13.30;71.70;;;;;;5028503;28;20466;-43
2022/05/27 05:44:38;;;;;;;11.43;2.25;;;13.70;71.40;;;;;;5028101;28;20083;-44
2022/05/27 05:47:06;;;;;;;11.95;2.90;;;14.00;70.20;;;;;;5028036;28;20033;-45
2022/05/27 05:49:32;;;;;;;12.43;3.05;;;14.20;69.90;;;;;;5029715;28;20041;-42
2022/05/27 05:51:59;;;;;;;13.55;2.70;;;14.20;70.00;;;;;;5028823;28;20045;-43
2022/05/27 05:54:26;;;;;;;15.75;3.15;;;14.30;70.00;;;;;;5029299;28;20068;-43
2022/05/27 05:56:52;;;;;;;14.90;2.55;;;14.30;69.70;;;;;;5028161;28;20418;-44
2022/05/27 05:59:22;;;;;;;9.40;2.03;;;14.20;70.00;;;;;;5027149;28;20033;-44
2022/05/27 06:01:48;;;;;;;;;;;14.10;70.70;;;;;;5027870;28;20356;-43
2022/05/27 06:04:14;;;;;;;9.82;2.90;;;14.00;69.80;;;;;;5028056;28;19913;-44
2022/05/27 06:06:40;;;;;;;8.65;2.60;;;13.90;69.90;;;;;;5028650;28;20504;-44
2022/05/27 06:09:07;;;;;;;14.27;3.22;;;14.00;68.90;;;;;;5029400;28;20033;-47
2022/05/27 06:11:39;;;;;;;12.02;2.42;;;14.00;68.80;;;;;;5027756;28;20052;-44
2022/05/27 06:14:05;;;;;;;11.52;2.53;;;13.90;68.50;;;;;;5026581;28;20123;-46
2022/05/27 06:16:31;;;;;;;7.18;2.05;;;13.90;67.00;;;;;;5027995;28;20121;-44
2022/05/27 06:18:57;;;;;;;10.75;2.08;;;13.90;65.20;;;;;;5028053;28;20038;-43
2022/05/27 06:21:22;;;;;;;16.33;2.85;;;13.80;64.50;;;;;;5028076;28;20033;-44
2022/05/27 06:23:48;;;;;;;11.57;2.58;;;13.90;63.60;;;;;;5026090;28;20119;-43
2022/05/27 06:26:14;;;;;;;10.63;3.33;;;13.90;62.80;;;;;;5028394;28;20037;-44
2022/05/27 06:34:24;;;;;;;9.57;3.03;;;14.20;63.90;;;;;;5014386;28;20487;-44
2022/05/27 06:37:01;;;;;;;7.53;2.13;;;14.10;61.40;;;;;;5022345;28;20033;-45
2022/05/27 06:39:27;;;;;;;10.48;2.80;;;14.20;63.70;;;;;;5026838;28;20144;-43
2022/05/27 06:41:53;;;;;;;13.32;2.83;;;14.20;61.70;;;;;;5028121;28;20029;-44
2022/05/27 06:44:19;;;;;;;14.60;3.28;;;14.00;61.40;;;;;;5043041;28;20035;-44
2022/05/27 06:46:46;;;;;;;11.95;4.07;;;13.90;62.50;;;;;;5028794;28;20065;-43
2022/05/27 06:49:12;;;;;;;14.43;3.40;;;13.80;63.20;;;;;;5029314;28;20132;-45
2022/05/27 06:51:39;;;;;;;14.38;3.17;;;13.80;63.00;;;;;;5034474;28;20038;-43
2022/05/27 06:54:06;;;;;;;14.63;3.03;;;13.90;62.30;;;;;;5026849;28;20289;-46
2022/05/27 06:56:38;;;;;;;14.50;3.75;;;14.00;61.80;;;;;;5026108;28;20018;-44
2022/05/27 06:59:07;;;;;;;13.23;3.03;;;14.00;61.50;;;;;;5028926;28;20026;-44
2022/05/27 07:01:35;;;;;;;16.80;3.37;;;14.20;62.30;;;;;;5043760;28;20040;-45
2022/05/27 07:04:02;;;;;;;17.77;3.50;;;14.40;61.00;;;;;;5052484;28;20599;-47
2022/05/27 07:06:39;;;;;;;14.10;4.20;;;14.40;61.20;;;;;;5032307;28;20517;-44
2022/05/27 07:09:07;;;;;;;19.05;3.08;;;14.40;62.10;;;;;;5032695;28;20041;-43
2022/05/27 07:11:34;;;;;;;14.95;4.03;;;14.50;62.30;;;;;;5050531;28;20082;-44
2022/05/27 07:14:00;;;;;;;13.85;3.67;;;14.30;60.80;;;;;;5051914;28;20029;-46
2022/05/27 07:16:28;;;;;;;12.68;3.40;;;13.90;61.50;;;;;;5035143;28;20033;-45
2022/05/27 07:18:54;;;;;;;18.35;4.72;;;13.90;62.90;;;;;;5031308;28;20124;-48
2022/05/27 07:21:21;;;;;;;15.07;4.22;;;14.00;63.80;;;;;;5026153;28;20039;-44
2022/05/27 07:23:55;;;;;;;14.20;4.45;;;14.40;62.70;;;;;;5007811;28;20048;-45
2022/05/27 07:26:22;;;;;;;16.08;3.95;;;14.90;61.50;;;;;;5016954;28;20041;-44
2022/05/27 07:28:48;;;;;;;17.00;4.22;;;14.90;59.50;;;;;;5010962;28;20358;-46
2022/05/27 07:31:17;;;;;;;10.68;3.38;;;15.30;60.00;;;;;;5008456;28;20033;-45
2022/05/27 07:33:43;;;;;;;16.80;4.03;;;15.50;58.80;;;;;;5016922;28;20559;-44
2022/05/27 07:36:10;;;;;;;12.50;3.70;;;15.40;59.40;;;;;;5018673;28;20473;-43
2022/05/27 07:38:35;;;;;;;13.50;4.07;;;15.70;57.60;;;;;;5016720;28;20033;-45
2022/05/27 07:41:03;;;;;;;17.95;4.00;;;15.80;56.70;;;;;;5012092;28;20459;-44
2022/05/27 07:43:31;;;;;;;9.15;3.13;;;16.00;56.70;;;;;;5004233;28;20084;-43
2022/05/27 07:45:58;;;;;;;12.07;3.25;;;15.80;57.90;;;;;;5023801;28;20091;-45
2022/05/27 07:48:24;;;;;;;11.77;3.42;;;15.60;59.40;;;;;;5029237;28;20044;-46
2022/05/27 07:50:51;;;;;;;12.20;3.70;;;16.00;57.80;;;;;;5027966;28;20023;-44
2022/05/27 07:53:19;;;;;;;13.15;2.97;;;16.00;57.00;;;;;;5033153;28;20042;-44
2022/05/27 07:55:48;;;;;;;11.73;3.70;;;16.30;56.90;;;;;;5030942;28;20052;-48
2022/05/27 07:58:16;;;;;;;14.95;3.22;;;16.50;55.20;;;;;;5039941;28;20025;-46
2022/05/27 08:00:46;;;;;;;8.15;2.38;;;16.80;55.40;;;;;;5042193;28;20026;-47
2022/05/27 08:03:13;;;;;;;;;;;17.00;54.00;;;;;;5029797;28;20038;-45
2022/05/27 08:05:41;;;;;;;13.23;3.47;;;17.30;54.80;;;;;;5030287;28;19999;-45
2022/05/27 08:08:07;;;;;;;12.60;3.65;;;17.30;53.60;;;;;;5027596;28;20039;-46
2022/05/27 08:10:36;;;;;;;10.60;3.05;;;16.70;55.60;;;;;;5027973;28;20022;-44
2022/05/27 08:13:02;;;;;;;10.45;3.83;;;16.90;55.30;;;;;;5034956;28;20077;-46
2022/05/27 08:15:29;;;;;;;11.40;3.63;;;16.90;53.40;;;;;;5012455;28;20041;-44
2022/05/27 08:17:57;;;;;;;15.85;3.90;;;16.30;55.20;;;;;;5028820;28;20037;-44
2022/05/27 08:20:28;;;;;;;13.23;3.25;;;15.30;58.50;;;;;;5029963;28;20059;-44
2022/05/27 08:22:57;;;;;;;14.18;4.15;;;15.60;57.50;;;;;;5027705;28;20037;-44
2022/05/27 08:25:24;;;;;;;14.77;3.90;;;15.40;59.40;;;;;;5033123;28;20346;-44
2022/05/27 08:27:54;;;;;;;11.27;4.60;;;15.40;60.50;;;;;;5040819;28;20431;-44
2022/05/27 08:30:24;;;;;;;11.32;3.20;;;15.60;58.50;;;;;;5048499;28;20032;-49
2022/05/27 08:32:52;;;;;;;16.02;3.28;;;15.70;57.50;;;;;;5050012;28;20338;-45
2022/05/27 08:38:09;;;;;;;13.68;3.85;;;15.80;60.40;;;;;;5028944;28;20039;-44
2022/05/27 08:41:14;;;;;;;20.00;4.65;;;15.00;61.00;;;;;;5013284;28;20037;-46
2022/05/27 08:44:22;;;;;;;19.70;5.00;;;14.40;63.70;;;;;;5046763;28;20397;-43
2022/05/27 08:47:12;;;;;;;15.98;4.38;;;14.40;63.70;;;;;;5045843;28;20056;-44
2022/05/27 08:49:45;;;;;;;25.15;4.75;;;15.50;61.60;;;;;;5041733;28;20347;-45
2022/05/27 08:52:46;;;;;;;16.92;4.45;;;15.50;62.20;;;;;;5042093;28;20408;-44
2022/05/27 09:01:41;;;;;;;10.75;2.95;;;16.00;57.90;;;;;;5026688;28;20044;-44
2022/05/27 09:04:33;;;;;;;14.00;4.18;;;16.40;56.80;;;;;;5028363;28;20200;-45
2022/05/27 09:07:08;;;;;;;12.85;2.88;;;15.30;56.50;;;;;;5027684;28;20029;-48
2022/05/27 09:09:35;;;;;;;17.85;4.72;;;14.50;61.20;;;;;;5027558;28;21041;-45
2022/05/27 09:12:25;;;;;;;15.95;4.32;;;14.30;67.00;;;;;;5025864;28;20436;-44
2022/05/27 09:15:03;;;;;;;16.02;4.18;;;14.30;68.30;;;;;;5036529;28;20030;-45
2022/05/27 09:17:42;;;;;;;15.93;3.85;;;14.60;67.90;;;;;;5036220;28;20035;-44
2022/05/27 09:20:37;;;;;;;13.57;3.13;;;15.40;63.70;;;;;;5024044;28;20033;-48
2022/05/27 09:23:30;;;;;;;11.18;3.03;;;16.00;61.10;;;;;;5025435;28;20111;-48
2022/05/27 09:26:05;;;;;;;8.93;3.03;;;16.20;59.00;;;;;;5032390;28;20421;-45
2022/05/27 09:28:43;;;;;;;14.05;3.15;;;16.10;55.60;;;;;;5047554;28;20362;-44
2022/05/27 09:31:15;;;;;;;13.52;3.35;;;16.10;56.30;;;;;;5032252;28;20418;-44
2022/05/27 09:33:42;;;;;;;14.50;4.18;;;16.00;56.70;;;;;;5026058;28;20029;-43
2022/05/27 09:36:09;;;;;;;13.73;4.03;;;15.30;58.30;;;;;;5026360;28;20026;-44
2022/05/27 09:38:39;;;;;;;14.85;3.50;;;15.20;61.10;;;;;;5026481;28;20037;-45
2022/05/27 09:41:49;;;;;;;21.38;4.28;;;15.00;60.60;;;;;;5014412;28;20047;-46
2022/05/27 09:44:40;;;;;;;12.52;3.72;;;14.90;61.30;;;;;;5031343;28;20029;-44
2022/05/27 09:47:08;;;;;;;13.10;3.35;;;15.20;60.10;;;;;;5038478;28;20041;-43
2022/05/27 09:49:34;;;;;;;12.25;3.63;;;15.90;60.50;;;;;;5025529;28;20765;-45
2022/05/27 09:52:01;;;;;;;21.45;4.40;;;15.90;60.00;;;;;;5039616;28;20060;-46
2022/05/27 09:54:35;;;;;;;18.63;5.55;;;15.10;62.30;;;;;;5029155;28;20047;-43
2022/05/27 09:57:07;;;;;;;14.05;4.53;;;14.70;62.50;;;;;;5035578;28;20029;-43
2022/05/27 09:59:39;;;;;;;20.58;4.13;;;15.30;64.00;;;;;;5026791;28;20037;-46
2022/05/27 10:02:16;;;;;;;13.75;4.22;;;16.30;60.50;;;;;;5013708;28;20033;-45
2022/05/27 10:05:08;;;;;;;13.00;3.40;;;16.20;60.30;;;;;;5025539;28;20045;-47
2022/05/27 10:07:52;;;;;;;13.77;3.70;;;15.90;59.30;;;;;;5025626;28;20140;-44
2022/05/27 10:10:34;;;;;;;19.60;3.63;;;15.10;58.60;;;;;;5018826;28;20041;-47
2022/05/27 10:13:28;;;;;;;18.15;3.30;;;15.10;60.40;;;;;;5020867;28;20045;-45
2022/05/27 10:16:04;;;;;;;16.52;2.80;;;15.10;59.60;;;;;;5005480;28;20120;-44
2022/05/27 10:18:30;;;;;;;12.93;2.88;;;14.90;60.20;;;;;;5005949;28;20078;-44
2022/05/27 10:21:01;;;;;;;19.35;4.05;;;14.60;61.20;;;;;;5004937;28;20412;-44
2022/05/27 10:23:35;;;;;;;11.88;3.78;;;14.80;62.40;;;;;;5018381;28;20096;-43
2022/05/27 10:26:30;;;;;;;14.27;3.72;;;15.30;61.30;;;;;;5002697;28;20037;-46
2022/05/27 10:28:57;;;;;;;15.70;3.72;;;15.50;60.70;;;;;;5003302;28;20042;-44
2022/05/27 10:31:28;;;;;;;21.75;4.45;;;15.50;61.70;;;;;;5005083;28;20018;-45
2022/05/27 10:33:53;;;;;;;17.00;4.22;;;16.10;61.20;;;;;;5010969;28;20053;-43
2022/05/27 10:36:50;;;;;;;14.82;3.53;;;16.20;59.90;;;;;;5011936;28;20668;-43
2022/05/27 10:39:51;;;;;;;16.10;4.30;;;16.20;58.40;;;;;;5011686;28;20482;-45
2022/05/27 10:42:35;;;;;;;10.05;3.45;;;16.10;60.20;;;;;;5010774;28;20418;-49
2022/05/27 10:45:13;;;;;;;14.85;4.22;;;15.90;60.00;;;;;;5007745;28;20348;-45
2022/05/27 10:47:53;;;;;;;18.15;3.78;;;15.30;62.40;;;;;;5005983;28;20030;-47
2022/05/27 10:50:30;;;;;;;17.23;3.03;;;14.90;63.20;;;;;;5008224;28;20039;-45
2022/05/27 10:53:16;;;;;;;17.05;4.55;;;15.50;61.60;;;;;;5024149;28;20145;-45
2022/05/27 10:56:00;;;;;;;14.45;3.97;;;15.90;61.40;;;;;;5033421;28;20031;-43
2022/05/27 11:04:45;;;;;;;18.95;4.18;;;16.10;60.30;;;;;;5037083;28;20094;-46
2022/05/27 11:07:27;;;;;;;15.20;3.72;;;15.90;61.40;;;;;;5028930;28;20029;-44
2022/05/27 11:09:58;;;;;;;17.25;3.95;;;16.40;60.10;;;;;;5036629;28;20040;-46
2022/05/27 11:15:52;;;;;;;15.43;3.47;;;15.70;62.50;;;;;;5026054;28;20105;-45
2022/05/27 11:18:39;;;;;;;16.88;3.17;;;15.20;62.60;;;;;;5027346;28;20037;-44
2022/05/27 11:21:27;;;;;;;15.05;5.05;;;14.90;63.40;;;;;;5030219;28;20075;-44
2022/05/27 11:24:25;;;;;;;15.50;3.95;;;14.70;64.40;;;;;;5022453;28;20042;-46
2022/05/27 11:27:25;;;;;;;13.43;3.63;;;15.30;63.40;;;;;;5028929;28;20037;-45
2022/05/27 11:30:03;;;;;;;;;;;15.90;60.80;;;;;;5020324;28;20030;-44
2022/05/27 11:32:47;;;;;;;13.82;3.22;;;15.90;58.00;;;;;;5025040;28;20009;-47
2022/05/27 11:35:41;;;;;;;14.40;3.63;;;15.50;58.60;;;;;;5023844;28;20030;-44
2022/05/27 11:38:28;;;;;;;17.52;4.75;;;15.50;61.00;;;;;;5020880;28;20028;-49
2022/05/27 11:41:38;;;;;;;9.30;2.65;;;15.50;59.40;;;;;;5020271;28;20371;-44
2022/05/27 11:44:41;;;;;;;8.85;2.92;;;15.90;61.00;;;;;;5022761;28;20026;-43
2022/05/27 11:47:26;;;;;;;13.02;3.45;;;16.50;57.50;;;;;;5016024;28;20030;-48
2022/05/27 11:50:19;;;;;;;11.80;2.83;;;16.40;58.10;;;;;;5026354;28;20125;-44
2022/05/27 11:53:07;;;;;;;14.60;3.20;;;15.80;58.10;;;;;;5029404;28;20053;-44
2022/05/27 11:55:42;;;;;;;24.17;4.90;;;15.50;60.80;;;;;;5027987;28;20373;-44
2022/05/27 11:58:21;;;;;;;15.70;4.63;;;15.20;62.30;;;;;;5029368;28;20029;-45
2022/05/27 12:01:17;;;;;;;16.38;3.95;;;14.80;64.60;;;;;;5027433;28;20029;-44
2022/05/27 12:04:10;;;;;;;18.80;4.18;;;14.50;65.90;;;;;;5013972;28;20044;-43
2022/05/27 12:06:54;;;;;;;21.77;4.93;;;15.10;65.70;;;;;;5020923;28;20446;-44
2022/05/27 12:09:44;;;;;;;18.15;4.35;;;15.20;63.50;;;;;;5025111;28;20025;-47
2022/05/27 12:12:31;;;;;;;10.70;3.28;;;14.90;66.20;;;;;;5027821;28;20060;-53
2022/05/27 12:15:14;;;;;;;15.27;4.07;;;14.00;73.90;;;;;;5028174;28;20030;-60
2022/05/27 12:17:50;;;;;;;14.73;3.22;;;12.90;78.70;;;;;;5023556;28;20026;-57
2022/05/27 12:20:21;;;;;;;12.32;4.15;;;12.80;80.70;;;;;;5024630;28;20036;-55
2022/05/27 12:22:52;;;;;;;12.70;3.08;;;12.60;80.80;;;;;;5028737;28;20045;-49
2022/05/27 12:25:29;;;;;;;18.13;4.03;;;12.50;80.80;;;;;;5026305;28;20033;-49
2022/05/27 12:27:56;;;;;;;19.75;4.63;;;12.60;81.40;;;;;;5026159;28;20104;-45
2022/05/27 12:30:31;;;;;;;14.27;4.20;;;12.90;81.70;;;;;;5029163;28;20052;-45
2022/05/27 12:32:58;;;;;;;17.73;4.20;;;13.20;77.90;;;;;;5026875;28;20021;-48
2022/05/27 12:35:26;;;;;;;15.82;2.83;;;13.20;76.90;;;;;;5036361;28;20048;-44
2022/05/27 12:38:05;;;;;;;17.75;4.93;;;13.40;77.70;;;;;;5028835;28;20032;-42
2022/05/27 12:40:38;;;;;;;11.95;3.42;;;13.60;75.90;;;;;;5030101;28;20109;-42
2022/05/27 12:43:11;;;;;;;16.38;3.90;;;14.00;74.90;;;;;;5024857;28;20044;-45
2022/05/27 12:45:47;;;;;;;13.20;2.72;;;14.30;74.60;;;;;;5013796;28;20026;-43
2022/05/27 12:48:45;;;;;;;14.80;4.28;;;14.40;71.10;;;;;;5029744;28;20091;-45
2022/05/27 12:51:20;;;;;;;14.55;3.35;;;14.70;70.30;;;;;;5019035;28;20040;-45
2022/05/27 12:54:04;;;;;;;15.80;3.67;;;14.50;67.10;;;;;;5029151;28;20478;-48
2022/05/27 13:02:42;;;;;;;14.88;3.78;;;14.00;68.50;;;;;;5024254;28;20052;-44
2022/05/27 13:05:13;;;;;;;12.57;3.13;;;14.00;67.60;;;;;;5027800;28;20125;-44
2022/05/27 13:08:10;;;;;;;15.82;3.45;;;14.20;68.60;;;;;;5024411;28;20046;-45
2022/05/27 13:10:45;;;;;;;17.02;3.35;;;14.60;68.10;;;;;;5029757;28;20045;-45
2022/05/27 13:13:13;;;;;;;16.27;2.80;;;14.80;67.90;;;;;;5038148;28;20342;-46
2022/05/27 13:16:03;;;;;;;12.55;4.22;;;14.80;67.40;;;;;;5026658;28;20147;-48
2022/05/27 13:18:59;;;;;;;11.35;2.70;;;14.80;66.90;;;;;;5019594;28;20036;-46
2022/05/27 13:21:34;;;;;;;12.18;3.42;;;15.20;66.10;;;;;;5007755;28;20439;-44
2022/05/27 13:24:18;;;;;;;14.02;4.38;;;15.30;66.90;;;;;;5027202;28;20076;-45
2022/05/27 13:26:58;;;;;;;19.33;5.03;;;15.40;67.00;;;;;;5032342;28;20036;-45
2022/05/27 13:29:34;;;;;;;18.25;4.40;;;15.40;66.80;;;;;;5044877;28;20082;-44
2022/05/27 13:32:22;;;;;;;13.35;3.25;;;15.70;67.20;;;;;;5034638;28;20029;-44
2022/05/27 13:35:17;;;;;;;11.50;3.47;;;15.80;66.30;;;;;;5039413;28;20025;-44
2022/05/27 13:38:01;;;;;;;17.23;4.05;;;15.80;66.00;;;;;;5026916;28;20099;-44
2022/05/27 13:40:34;;;;;;;11.63;2.90;;;15.90;65.20;;;;;;5027647;28;20036;-43
2022/05/27 13:43:17;;;;;;;17.77;4.57;;;15.50;65.10;;;;;;5048134;28;20048;-43
2022/05/27 13:46:01;;;;;;;23.27;5.18;;;15.10;65.60;;;;;;5012776;28;20042;-43
2022/05/27 13:48:54;;;;;;;13.27;4.18;;;15.20;66.50;;;;;;5031450;28;20126;-44
2022/05/27 13:51:22;;;;;;;16.42;3.30;;;14.90;63.80;;;;;;5025513;28;20120;-46